sensor_id;sensor_type;location;lat;lon;timestamp;temperature;humidity
37646;DHT22;23489;49.600;6.138;2023-07-24T00:00:20;19.50;99.90
37646;DHT22;23489;49.600;6.138;2023-07-24T00:02:46;19.50;99.90
37646;DHT22;23489;49.600;6.138;2023-07-24T00:05:12;19.50;99.90
37646;DHT22;23489;49.600;6.138;2023-07-24T00:07:37;19.40;99.90
37646;DHT22;23489;49.600;6.138;2023-07-24T00:10:04;19.40;99.90
37646;DHT22;23489;49.600;6.138;2023-07-24T00:12:30;19.40;99.90
37646;DHT22;23489;49.600;6.138;2023-07-24T00:14:55;19.40;99.90
37646;DHT22;23489;49.600;6.138;2023-07-24T00:17:21;19.30;99.90
37646;DHT22;23489;49.600;6.138;2023-07-24T00:19:47;19.20;99.90
37646;DHT22;23489;49.600;6.138;2023-07-24T00:22:13;19.20;99.90
37646;DHT22;23489;49.600;6.138;2023-07-24T00:24:38;19.20;99.90
37646;DHT22;23489;49.600;6.138;2023-07-24T00:27:04;19.10;99.90
37646;DHT22;23489;49.600;6.138;2023-07-24T00:29:30;19.10;99.90
37646;DHT22;23489;49.600;6.138;2023-07-24T00:31:56;19.00;99.90
37646;DHT22;23489;49.600;6.138;2023-07-24T00:34:21;19.00;99.90
37646;DHT22;23489;49.600;6.138;2023-07-24T00:36:47;19.00;99.90
37646;DHT22;23489;49.600;6.138;2023-07-24T00:39:14;19.00;99.90
37646;DHT22;23489;49.600;6.138;2023-07-24T00:41:40;19.00;99.90
37646;DHT22;23489;49.600;6.138;2023-07-24T00:44:06;19.00;99.90
37646;DHT22;23489;49.600;6.138;2023-07-24T00:46:32;18.90;99.90
37646;DHT22;23489;49.600;6.138;2023-07-24T00:48:59;18.90;99.90
37646;DHT22;23489;49.600;6.138;2023-07-24T00:51:27;18.90;99.90
37646;DHT22;23489;49.600;6.138;2023-07-24T00:53:55;18.90;99.90
37646;DHT22;23489;49.600;6.138;2023-07-24T00:56:22;18.90;99.90
37646;DHT22;23489;49.600;6.138;2023-07-24T00:58:48;18.90;99.90
37646;DHT22;23489;49.600;6.138;2023-07-24T01:01:16;19.00;99.90
37646;DHT22;23489;49.600;6.138;2023-07-24T01:03:42;18.90;99.90
37646;DHT22;23489;49.600;6.138;2023-07-24T01:06:09;18.90;99.90
37646;DHT22;23489;49.600;6.138;2023-07-24T01:08:36;18.90;99.90
37646;DHT22;23489;49.600;6.138;2023-07-24T01:11:24;19.00;99.90
37646;DHT22;23489;49.600;6.138;2023-07-24T01:14:46;18.90;99.90
37646;DHT22;23489;49.600;6.138;2023-07-24T01:17:07;18.90;99.90
37646;DHT22;23489;49.600;6.138;2023-07-24T01:19:47;18.90;99.90
37646;DHT22;23489;49.600;6.138;2023-07-24T01:27:43;18.90;99.90
37646;DHT22;23489;49.600;6.138;2023-07-24T01:30:10;18.90;99.90
37646;DHT22;23489;49.600;6.138;2023-07-24T01:32:37;18.80;99.90
37646;DHT22;23489;49.600;6.138;2023-07-24T01:35:03;18.80;99.90
37646;DHT22;23489;49.600;6.138;2023-07-24T01:37:30;18.80;99.90
37646;DHT22;23489;49.600;6.138;2023-07-24T01:39:56;18.90;99.90
37646;DHT22;23489;49.600;6.138;2023-07-24T01:42:23;18.80;99.90
37646;DHT22;23489;49.600;6.138;2023-07-24T01:44:53;18.80;99.90
37646;DHT22;23489;49.600;6.138;2023-07-24T01:47:19;18.80;99.90
37646;DHT22;23489;49.600;6.138;2023-07-24T01:49:44;18.90;99.90
37646;DHT22;23489;49.600;6.138;2023-07-24T01:52:10;18.90;99.90
37646;DHT22;23489;49.600;6.138;2023-07-24T01:54:36;18.90;99.90
37646;DHT22;23489;49.600;6.138;2023-07-24T01:57:02;18.80;99.90
37646;DHT22;23489;49.600;6.138;2023-07-24T01:59:27;18.80;99.90
37646;DHT22;23489;49.600;6.138;2023-07-24T02:01:53;18.80;99.90
37646;DHT22;23489;49.600;6.138;2023-07-24T02:04:19;18.80;99.90
37646;DHT22;23489;49.600;6.138;2023-07-24T02:06:49;18.80;99.90
37646;DHT22;23489;49.600;6.138;2023-07-24T02:09:18;18.80;99.90
37646;DHT22;23489;49.600;6.138;2023-07-24T02:11:44;18.70;99.90
37646;DHT22;23489;49.600;6.138;2023-07-24T02:14:11;18.70;99.90
37646;DHT22;23489;49.600;6.138;2023-07-24T02:16:36;18.60;99.90
37646;DHT22;23489;49.600;6.138;2023-07-24T02:19:02;18.60;99.90
37646;DHT22;23489;49.600;6.138;2023-07-24T02:21:28;18.50;99.90
37646;DHT22;23489;49.600;6.138;2023-07-24T02:23:54;18.50;99.90
37646;DHT22;23489;49.600;6.138;2023-07-24T02:26:19;18.40;99.90
37646;DHT22;23489;49.600;6.138;2023-07-24T02:28:45;18.40;99.90
37646;DHT22;23489;49.600;6.138;2023-07-24T02:31:11;18.30;99.90
37646;DHT22;23489;49.600;6.138;2023-07-24T02:33:37;18.30;99.90
37646;DHT22;23489;49.600;6.138;2023-07-24T02:36:03;18.20;99.90
37646;DHT22;23489;49.600;6.138;2023-07-24T02:38:28;18.10;99.90
37646;DHT22;23489;49.600;6.138;2023-07-24T02:40:54;18.00;99.90
37646;DHT22;23489;49.600;6.138;2023-07-24T02:43:20;18.00;99.90
37646;DHT22;23489;49.600;6.138;2023-07-24T02:45:45;17.90;99.90
37646;DHT22;23489;49.600;6.138;2023-07-24T02:48:11;17.80;99.90
37646;DHT22;23489;49.600;6.138;2023-07-24T02:50:36;17.80;99.90
37646;DHT22;23489;49.600;6.138;2023-07-24T02:53:02;17.70;99.90
37646;DHT22;23489;49.600;6.138;2023-07-24T02:55:28;17.70;99.90
37646;DHT22;23489;49.600;6.138;2023-07-24T02:57:53;17.60;99.90
37646;DHT22;23489;49.600;6.138;2023-07-24T03:00:19;17.60;99.90
37646;DHT22;23489;49.600;6.138;2023-07-24T03:02:45;17.60;99.90
37646;DHT22;23489;49.600;6.138;2023-07-24T03:05:10;17.60;99.90
37646;DHT22;23489;49.600;6.138;2023-07-24T03:07:36;17.60;99.90
37646;DHT22;23489;49.600;6.138;2023-07-24T03:10:02;17.60;99.90
37646;DHT22;23489;49.600;6.138;2023-07-24T03:12:29;17.60;99.90
37646;DHT22;23489;49.600;6.138;2023-07-24T03:14:55;17.60;99.90
37646;DHT22;23489;49.600;6.138;2023-07-24T03:17:22;17.60;99.90
37646;DHT22;23489;49.600;6.138;2023-07-24T03:19:48;17.50;99.90
37646;DHT22;23489;49.600;6.138;2023-07-24T03:22:14;17.50;99.90
37646;DHT22;23489;49.600;6.138;2023-07-24T03:24:40;17.40;99.90
37646;DHT22;23489;49.600;6.138;2023-07-24T03:27:06;17.30;99.90
37646;DHT22;23489;49.600;6.138;2023-07-24T03:29:31;17.30;99.90
37646;DHT22;23489;49.600;6.138;2023-07-24T03:31:57;17.20;99.90
37646;DHT22;23489;49.600;6.138;2023-07-24T03:34:24;17.20;99.90
37646;DHT22;23489;49.600;6.138;2023-07-24T03:36:50;17.10;99.90
37646;DHT22;23489;49.600;6.138;2023-07-24T03:39:16;17.10;99.90
37646;DHT22;23489;49.600;6.138;2023-07-24T03:41:42;17.10;99.90
37646;DHT22;23489;49.600;6.138;2023-07-24T03:44:08;17.10;99.90
37646;DHT22;23489;49.600;6.138;2023-07-24T03:46:34;17.10;99.90
37646;DHT22;23489;49.600;6.138;2023-07-24T03:48:59;17.10;99.90
37646;DHT22;23489;49.600;6.138;2023-07-24T03:51:25;17.10;99.90
37646;DHT22;23489;49.600;6.138;2023-07-24T03:53:50;17.10;99.90
37646;DHT22;23489;49.600;6.138;2023-07-24T03:56:16;17.10;99.90
37646;DHT22;23489;49.600;6.138;2023-07-24T03:58:42;17.20;99.90
37646;DHT22;23489;49.600;6.138;2023-07-24T04:01:10;17.20;99.90
37646;DHT22;23489;49.600;6.138;2023-07-24T04:03:36;17.30;99.90
37646;DHT22;23489;49.600;6.138;2023-07-24T04:06:02;17.30;99.90
37646;DHT22;23489;49.600;6.138;2023-07-24T04:08:27;17.40;99.90
37646;DHT22;23489;49.600;6.138;2023-07-24T04:10:53;17.50;99.90
37646;DHT22;23489;49.600;6.138;2023-07-24T04:13:21;17.60;99.90
37646;DHT22;23489;49.600;6.138;2023-07-24T04:15:47;17.60;99.90
37646;DHT22;23489;49.600;6.138;2023-07-24T04:18:12;17.70;99.90
37646;DHT22;23489;49.600;6.138;2023-07-24T04:20:38;17.70;99.90
37646;DHT22;23489;49.600;6.138;2023-07-24T04:23:03;17.70;99.90
37646;DHT22;23489;49.600;6.138;2023-07-24T04:25:29;17.70;99.90
37646;DHT22;23489;49.600;6.138;2023-07-24T04:27:54;17.70;99.90
37646;DHT22;23489;49.600;6.138;2023-07-24T04:30:20;17.80;99.90
37646;DHT22;23489;49.600;6.138;2023-07-24T04:32:46;17.90;99.90
37646;DHT22;23489;49.600;6.138;2023-07-24T04:35:12;18.00;99.90
37646;DHT22;23489;49.600;6.138;2023-07-24T04:37:37;18.00;99.90
37646;DHT22;23489;49.600;6.138;2023-07-24T04:40:03;18.10;99.90
37646;DHT22;23489;49.600;6.138;2023-07-24T04:42:29;18.10;99.90
37646;DHT22;23489;49.600;6.138;2023-07-24T04:44:55;18.30;99.90
37646;DHT22;23489;49.600;6.138;2023-07-24T04:47:20;18.30;99.90
37646;DHT22;23489;49.600;6.138;2023-07-24T04:49:46;18.30;99.90
37646;DHT22;23489;49.600;6.138;2023-07-24T04:52:11;18.40;99.90
37646;DHT22;23489;49.600;6.138;2023-07-24T04:54:37;18.40;99.90
37646;DHT22;23489;49.600;6.138;2023-07-24T04:57:03;18.40;99.90
37646;DHT22;23489;49.600;6.138;2023-07-24T04:59:28;18.40;99.90
37646;DHT22;23489;49.600;6.138;2023-07-24T05:01:54;18.40;99.90
37646;DHT22;23489;49.600;6.138;2023-07-24T05:04:20;18.40;99.90
37646;DHT22;23489;49.600;6.138;2023-07-24T05:06:45;18.40;99.90
37646;DHT22;23489;49.600;6.138;2023-07-24T05:09:11;18.40;99.90
37646;DHT22;23489;49.600;6.138;2023-07-24T05:11:36;18.40;99.90
37646;DHT22;23489;49.600;6.138;2023-07-24T05:14:02;18.60;99.90
37646;DHT22;23489;49.600;6.138;2023-07-24T05:16:27;18.60;99.90
37646;DHT22;23489;49.600;6.138;2023-07-24T05:18:53;18.60;99.90
37646;DHT22;23489;49.600;6.138;2023-07-24T05:21:19;18.60;99.90
37646;DHT22;23489;49.600;6.138;2023-07-24T05:23:44;18.60;99.90
37646;DHT22;23489;49.600;6.138;2023-07-24T05:26:10;18.60;99.90
37646;DHT22;23489;49.600;6.138;2023-07-24T05:28:35;18.60;99.90
37646;DHT22;23489;49.600;6.138;2023-07-24T05:31:02;18.60;99.90
37646;DHT22;23489;49.600;6.138;2023-07-24T05:33:28;18.70;99.90
37646;DHT22;23489;49.600;6.138;2023-07-24T05:36:04;18.60;99.90
37646;DHT22;23489;49.600;6.138;2023-07-24T05:38:30;18.70;99.90
37646;DHT22;23489;49.600;6.138;2023-07-24T05:43:22;18.70;99.90
37646;DHT22;23489;49.600;6.138;2023-07-24T05:45:47;18.80;99.90
37646;DHT22;23489;49.600;6.138;2023-07-24T05:48:13;18.80;99.90
37646;DHT22;23489;49.600;6.138;2023-07-24T05:50:38;18.90;99.90
37646;DHT22;23489;49.600;6.138;2023-07-24T05:53:04;18.90;99.90
37646;DHT22;23489;49.600;6.138;2023-07-24T05:55:29;18.90;99.90
37646;DHT22;23489;49.600;6.138;2023-07-24T05:57:55;19.10;99.90
37646;DHT22;23489;49.600;6.138;2023-07-24T06:00:21;19.20;99.90
37646;DHT22;23489;49.600;6.138;2023-07-24T06:02:46;19.30;99.90
37646;DHT22;23489;49.600;6.138;2023-07-24T06:05:12;19.50;99.90
37646;DHT22;23489;49.600;6.138;2023-07-24T06:07:37;19.70;99.90
37646;DHT22;23489;49.600;6.138;2023-07-24T06:10:03;19.80;99.90
37646;DHT22;23489;49.600;6.138;2023-07-24T06:12:29;19.90;99.90
37646;DHT22;23489;49.600;6.138;2023-07-24T06:14:54;19.80;99.90
37646;DHT22;23489;49.600;6.138;2023-07-24T06:17:20;19.70;99.90
37646;DHT22;23489;49.600;6.138;2023-07-24T06:19:46;19.70;99.90
37646;DHT22;23489;49.600;6.138;2023-07-24T06:22:11;19.70;99.90
37646;DHT22;23489;49.600;6.138;2023-07-24T06:24:37;19.60;99.90
37646;DHT22;23489;49.600;6.138;2023-07-24T06:27:04;19.50;99.90
37646;DHT22;23489;49.600;6.138;2023-07-24T06:29:32;19.60;99.90
37646;DHT22;23489;49.600;6.138;2023-07-24T06:31:57;19.60;99.90
37646;DHT22;23489;49.600;6.138;2023-07-24T06:34:23;19.60;99.90
37646;DHT22;23489;49.600;6.138;2023-07-24T06:36:49;19.60;99.90
37646;DHT22;23489;49.600;6.138;2023-07-24T06:39:14;19.50;99.90
37646;DHT22;23489;49.600;6.138;2023-07-24T06:41:40;19.40;99.90
37646;DHT22;23489;49.600;6.138;2023-07-24T06:44:06;19.20;99.90
37646;DHT22;23489;49.600;6.138;2023-07-24T06:46:31;19.10;99.90
37646;DHT22;23489;49.600;6.138;2023-07-24T06:48:57;19.10;99.90
37646;DHT22;23489;49.600;6.138;2023-07-24T06:51:22;19.10;99.90
37646;DHT22;23489;49.600;6.138;2023-07-24T06:53:48;19.10;99.90
37646;DHT22;23489;49.600;6.138;2023-07-24T06:56:13;19.00;99.90
37646;DHT22;23489;49.600;6.138;2023-07-24T06:58:39;19.00;99.90
37646;DHT22;23489;49.600;6.138;2023-07-24T07:01:07;19.10;99.90
37646;DHT22;23489;49.600;6.138;2023-07-24T07:03:33;19.10;99.90
37646;DHT22;23489;49.600;6.138;2023-07-24T07:06:03;19.10;99.90
37646;DHT22;23489;49.600;6.138;2023-07-24T07:08:30;19.20;99.90
37646;DHT22;23489;49.600;6.138;2023-07-24T07:10:59;19.30;99.90
37646;DHT22;23489;49.600;6.138;2023-07-24T07:13:25;19.40;99.90
37646;DHT22;23489;49.600;6.138;2023-07-24T07:15:51;19.40;99.90
37646;DHT22;23489;49.600;6.138;2023-07-24T07:18:16;19.40;99.90
37646;DHT22;23489;49.600;6.138;2023-07-24T07:20:46;19.40;99.90
37646;DHT22;23489;49.600;6.138;2023-07-24T07:23:12;19.20;99.90
37646;DHT22;23489;49.600;6.138;2023-07-24T07:25:38;19.30;99.90
37646;DHT22;23489;49.600;6.138;2023-07-24T07:28:03;19.30;99.90
37646;DHT22;23489;49.600;6.138;2023-07-24T07:30:29;19.10;99.90
37646;DHT22;23489;49.600;6.138;2023-07-24T07:32:54;19.00;99.90
37646;DHT22;23489;49.600;6.138;2023-07-24T07:35:20;18.90;99.90
37646;DHT22;23489;49.600;6.138;2023-07-24T07:37:46;18.70;99.90
37646;DHT22;23489;49.600;6.138;2023-07-24T07:40:11;18.50;99.90
37646;DHT22;23489;49.600;6.138;2023-07-24T07:42:37;18.60;99.90
37646;DHT22;23489;49.600;6.138;2023-07-24T07:45:03;18.80;99.90
37646;DHT22;23489;49.600;6.138;2023-07-24T07:47:28;19.20;99.90
37646;DHT22;23489;49.600;6.138;2023-07-24T07:49:54;19.40;99.90
37646;DHT22;23489;49.600;6.138;2023-07-24T07:52:20;19.50;99.90
37646;DHT22;23489;49.600;6.138;2023-07-24T07:54:50;19.50;99.90
37646;DHT22;23489;49.600;6.138;2023-07-24T07:57:15;19.50;99.90
37646;DHT22;23489;49.600;6.138;2023-07-24T07:59:41;19.40;99.90
37646;DHT22;23489;49.600;6.138;2023-07-24T08:02:07;19.30;99.90
37646;DHT22;23489;49.600;6.138;2023-07-24T08:04:33;19.00;99.90
37646;DHT22;23489;49.600;6.138;2023-07-24T08:06:59;19.10;99.90
37646;DHT22;23489;49.600;6.138;2023-07-24T08:09:24;19.20;99.90
37646;DHT22;23489;49.600;6.138;2023-07-24T08:11:51;19.40;99.90
37646;DHT22;23489;49.600;6.138;2023-07-24T08:14:17;19.50;99.90
37646;DHT22;23489;49.600;6.138;2023-07-24T08:16:43;19.40;99.90
37646;DHT22;23489;49.600;6.138;2023-07-24T08:19:08;19.40;99.90
37646;DHT22;23489;49.600;6.138;2023-07-24T08:21:34;19.50;99.90
37646;DHT22;23489;49.600;6.138;2023-07-24T08:23:59;19.80;99.90
37646;DHT22;23489;49.600;6.138;2023-07-24T08:26:27;20.20;99.90
37646;DHT22;23489;49.600;6.138;2023-07-24T08:28:52;20.20;99.90
37646;DHT22;23489;49.600;6.138;2023-07-24T08:31:18;20.60;99.90
37646;DHT22;23489;49.600;6.138;2023-07-24T08:33:44;20.80;99.90
37646;DHT22;23489;49.600;6.138;2023-07-24T08:36:09;21.10;99.90
37646;DHT22;23489;49.600;6.138;2023-07-24T08:38:37;21.60;99.90
37646;DHT22;23489;49.600;6.138;2023-07-24T08:41:11;22.00;99.90
37646;DHT22;23489;49.600;6.138;2023-07-24T08:43:40;22.90;99.90
37646;DHT22;23489;49.600;6.138;2023-07-24T08:46:07;23.80;99.90
37646;DHT22;23489;49.600;6.138;2023-07-24T08:48:36;23.90;99.90
37646;DHT22;23489;49.600;6.138;2023-07-24T08:51:03;23.80;99.90
37646;DHT22;23489;49.600;6.138;2023-07-24T08:53:30;23.70;99.90
37646;DHT22;23489;49.600;6.138;2023-07-24T08:55:57;23.50;99.90
37646;DHT22;23489;49.600;6.138;2023-07-24T08:58:23;22.90;99.90
37646;DHT22;23489;49.600;6.138;2023-07-24T09:00:49;22.50;99.90
37646;DHT22;23489;49.600;6.138;2023-07-24T09:03:20;22.30;99.90
37646;DHT22;23489;49.600;6.138;2023-07-24T09:05:45;22.60;99.90
37646;DHT22;23489;49.600;6.138;2023-07-24T09:08:11;23.10;99.90
37646;DHT22;23489;49.600;6.138;2023-07-24T09:10:37;23.50;99.90
37646;DHT22;23489;49.600;6.138;2023-07-24T09:13:02;24.10;99.90
37646;DHT22;23489;49.600;6.138;2023-07-24T09:15:38;23.80;99.90
37646;DHT22;23489;49.600;6.138;2023-07-24T09:18:04;24.80;99.90
37646;DHT22;23489;49.600;6.138;2023-07-24T09:20:37;24.30;99.90
37646;DHT22;23489;49.600;6.138;2023-07-24T09:23:02;24.00;99.90
37646;DHT22;23489;49.600;6.138;2023-07-24T09:25:31;23.80;99.90
37646;DHT22;23489;49.600;6.138;2023-07-24T09:28:00;23.90;99.90
37646;DHT22;23489;49.600;6.138;2023-07-24T09:30:26;24.30;99.90
37646;DHT22;23489;49.600;6.138;2023-07-24T09:32:52;23.50;99.90
37646;DHT22;23489;49.600;6.138;2023-07-24T09:35:18;23.30;99.90
37646;DHT22;23489;49.600;6.138;2023-07-24T09:37:43;22.90;99.90
37646;DHT22;23489;49.600;6.138;2023-07-24T09:40:11;22.90;99.90
37646;DHT22;23489;49.600;6.138;2023-07-24T09:42:38;22.80;99.90
37646;DHT22;23489;49.600;6.138;2023-07-24T09:45:04;23.00;99.90
37646;DHT22;23489;49.600;6.138;2023-07-24T09:47:31;23.30;99.90
37646;DHT22;23489;49.600;6.138;2023-07-24T09:49:57;23.60;99.90
37646;DHT22;23489;49.600;6.138;2023-07-24T09:52:24;23.60;99.90
37646;DHT22;23489;49.600;6.138;2023-07-24T09:54:56;23.40;99.90
37646;DHT22;23489;49.600;6.138;2023-07-24T09:57:26;23.20;99.90
37646;DHT22;23489;49.600;6.138;2023-07-24T09:59:52;22.90;99.90
37646;DHT22;23489;49.600;6.138;2023-07-24T10:02:19;22.80;99.90
37646;DHT22;23489;49.600;6.138;2023-07-24T10:04:46;23.00;99.90
37646;DHT22;23489;49.600;6.138;2023-07-24T10:07:13;23.10;99.90
37646;DHT22;23489;49.600;6.138;2023-07-24T10:09:39;23.00;99.90
37646;DHT22;23489;49.600;6.138;2023-07-24T10:12:05;22.90;99.90
37646;DHT22;23489;49.600;6.138;2023-07-24T10:14:31;22.80;99.90
37646;DHT22;23489;49.600;6.138;2023-07-24T10:16:57;22.60;99.90
37646;DHT22;23489;49.600;6.138;2023-07-24T10:19:23;22.40;99.90
37646;DHT22;23489;49.600;6.138;2023-07-24T10:21:49;22.40;99.90
37646;DHT22;23489;49.600;6.138;2023-07-24T10:24:16;22.30;99.90
37646;DHT22;23489;49.600;6.138;2023-07-24T10:26:42;22.00;99.90
37646;DHT22;23489;49.600;6.138;2023-07-24T10:29:09;21.60;99.90
37646;DHT22;23489;49.600;6.138;2023-07-24T10:31:35;21.40;99.90
37646;DHT22;23489;49.600;6.138;2023-07-24T10:34:05;21.10;99.90
37646;DHT22;23489;49.600;6.138;2023-07-24T10:36:35;20.50;99.90
37646;DHT22;23489;49.600;6.138;2023-07-24T10:39:01;19.70;99.90
37646;DHT22;23489;49.600;6.138;2023-07-24T10:41:37;19.20;99.90
37646;DHT22;23489;49.600;6.138;2023-07-24T10:44:03;18.90;99.90
37646;DHT22;23489;49.600;6.138;2023-07-24T10:46:42;18.80;99.90
37646;DHT22;23489;49.600;6.138;2023-07-24T10:49:08;18.90;99.90
37646;DHT22;23489;49.600;6.138;2023-07-24T10:51:34;19.30;99.90
37646;DHT22;23489;49.600;6.138;2023-07-24T10:54:03;20.10;99.90
37646;DHT22;23489;49.600;6.138;2023-07-24T10:56:29;21.00;99.90
37646;DHT22;23489;49.600;6.138;2023-07-24T10:58:55;21.60;99.90
37646;DHT22;23489;49.600;6.138;2023-07-24T11:01:21;21.90;99.90
37646;DHT22;23489;49.600;6.138;2023-07-24T11:03:49;22.10;99.90
37646;DHT22;23489;49.600;6.138;2023-07-24T11:06:16;22.30;99.90
37646;DHT22;23489;49.600;6.138;2023-07-24T11:08:51;22.30;99.90
37646;DHT22;23489;49.600;6.138;2023-07-24T11:11:17;22.30;99.90
37646;DHT22;23489;49.600;6.138;2023-07-24T11:13:43;22.30;99.90
37646;DHT22;23489;49.600;6.138;2023-07-24T11:16:08;22.50;99.90
37646;DHT22;23489;49.600;6.138;2023-07-24T11:18:44;22.50;99.90
37646;DHT22;23489;49.600;6.138;2023-07-24T11:21:12;22.40;99.90
37646;DHT22;23489;49.600;6.138;2023-07-24T11:23:44;22.30;99.90
37646;DHT22;23489;49.600;6.138;2023-07-24T11:26:09;21.80;99.90
37646;DHT22;23489;49.600;6.138;2023-07-24T11:28:38;21.30;99.90
37646;DHT22;23489;49.600;6.138;2023-07-24T11:31:04;20.90;99.90
37646;DHT22;23489;49.600;6.138;2023-07-24T11:33:30;20.70;99.90
37646;DHT22;23489;49.600;6.138;2023-07-24T11:35:55;20.90;99.90
37646;DHT22;23489;49.600;6.138;2023-07-24T11:38:21;21.20;99.90
37646;DHT22;23489;49.600;6.138;2023-07-24T11:40:47;21.40;99.90
37646;DHT22;23489;49.600;6.138;2023-07-24T11:43:30;21.80;99.90
37646;DHT22;23489;49.600;6.138;2023-07-24T11:45:56;22.20;99.90
37646;DHT22;23489;49.600;6.138;2023-07-24T11:48:23;22.70;99.90
37646;DHT22;23489;49.600;6.138;2023-07-24T11:50:51;22.90;99.90
37646;DHT22;23489;49.600;6.138;2023-07-24T11:53:28;22.90;99.90
37646;DHT22;23489;49.600;6.138;2023-07-24T11:55:56;22.90;99.90
37646;DHT22;23489;49.600;6.138;2023-07-24T11:58:24;22.80;99.90
37646;DHT22;23489;49.600;6.138;2023-07-24T12:00:51;23.20;99.90
37646;DHT22;23489;49.600;6.138;2023-07-24T12:03:25;23.30;99.90
37646;DHT22;23489;49.600;6.138;2023-07-24T12:05:51;23.00;99.90
37646;DHT22;23489;49.600;6.138;2023-07-24T12:08:29;22.80;99.90
37646;DHT22;23489;49.600;6.138;2023-07-24T12:10:54;23.20;99.90
37646;DHT22;23489;49.600;6.138;2023-07-24T12:13:20;23.50;99.90
37646;DHT22;23489;49.600;6.138;2023-07-24T12:15:45;23.50;99.90
37646;DHT22;23489;49.600;6.138;2023-07-24T12:18:11;23.70;99.90
37646;DHT22;23489;49.600;6.138;2023-07-24T12:20:37;23.60;99.90
37646;DHT22;23489;49.600;6.138;2023-07-24T12:23:02;23.60;99.90
37646;DHT22;23489;49.600;6.138;2023-07-24T12:25:28;23.20;99.90
37646;DHT22;23489;49.600;6.138;2023-07-24T12:27:53;23.30;99.90
37646;DHT22;23489;49.600;6.138;2023-07-24T12:30:19;23.50;99.90
37646;DHT22;23489;49.600;6.138;2023-07-24T12:32:45;23.80;99.90
37646;DHT22;23489;49.600;6.138;2023-07-24T12:35:10;23.50;99.90
37646;DHT22;23489;49.600;6.138;2023-07-24T12:37:36;23.20;99.90
37646;DHT22;23489;49.600;6.138;2023-07-24T12:40:02;23.20;99.90
37646;DHT22;23489;49.600;6.138;2023-07-24T12:42:28;22.90;99.90
37646;DHT22;23489;49.600;6.138;2023-07-24T12:44:54;22.70;99.90
37646;DHT22;23489;49.600;6.138;2023-07-24T12:47:19;22.90;99.90
37646;DHT22;23489;49.600;6.138;2023-07-24T12:49:45;22.90;99.90
37646;DHT22;23489;49.600;6.138;2023-07-24T12:52:11;23.10;99.90
37646;DHT22;23489;49.600;6.138;2023-07-24T12:54:37;23.30;99.90
37646;DHT22;23489;49.600;6.138;2023-07-24T12:57:03;23.50;99.90
37646;DHT22;23489;49.600;6.138;2023-07-24T12:59:29;23.70;99.90
37646;DHT22;23489;49.600;6.138;2023-07-24T13:01:54;23.80;99.90
37646;DHT22;23489;49.600;6.138;2023-07-24T13:04:20;24.00;99.90
37646;DHT22;23489;49.600;6.138;2023-07-24T13:06:46;24.10;99.90
37646;DHT22;23489;49.600;6.138;2023-07-24T13:09:13;24.10;99.90
37646;DHT22;23489;49.600;6.138;2023-07-24T13:11:38;24.10;99.90
37646;DHT22;23489;49.600;6.138;2023-07-24T13:14:04;24.10;99.90
37646;DHT22;23489;49.600;6.138;2023-07-24T13:16:30;24.10;99.90
37646;DHT22;23489;49.600;6.138;2023-07-24T13:18:55;24.00;99.90
37646;DHT22;23489;49.600;6.138;2023-07-24T13:21:21;23.80;99.90
37646;DHT22;23489;49.600;6.138;2023-07-24T13:23:46;23.50;99.90
37646;DHT22;23489;49.600;6.138;2023-07-24T13:26:13;23.30;99.90
37646;DHT22;23489;49.600;6.138;2023-07-24T13:28:39;23.30;99.90
37646;DHT22;23489;49.600;6.138;2023-07-24T13:31:15;23.20;99.90
37646;DHT22;23489;49.600;6.138;2023-07-24T13:33:41;23.10;99.90
37646;DHT22;23489;49.600;6.138;2023-07-24T13:36:07;23.20;99.90
37646;DHT22;23489;49.600;6.138;2023-07-24T13:38:33;23.20;99.90
37646;DHT22;23489;49.600;6.138;2023-07-24T13:40:58;23.30;99.90
37646;DHT22;23489;49.600;6.138;2023-07-24T13:43:24;23.30;99.90
37646;DHT22;23489;49.600;6.138;2023-07-24T13:45:50;23.40;99.90
37646;DHT22;23489;49.600;6.138;2023-07-24T13:48:15;23.50;99.90
37646;DHT22;23489;49.600;6.138;2023-07-24T13:50:41;23.70;99.90
37646;DHT22;23489;49.600;6.138;2023-07-24T13:53:06;23.70;99.90
37646;DHT22;23489;49.600;6.138;2023-07-24T13:55:32;23.80;99.90
37646;DHT22;23489;49.600;6.138;2023-07-24T13:57:58;23.90;99.90
37646;DHT22;23489;49.600;6.138;2023-07-24T14:00:23;23.70;99.90
37646;DHT22;23489;49.600;6.138;2023-07-24T14:02:49;23.80;99.90
37646;DHT22;23489;49.600;6.138;2023-07-24T14:05:16;24.00;99.90
37646;DHT22;23489;49.600;6.138;2023-07-24T14:07:42;24.00;99.90
37646;DHT22;23489;49.600;6.138;2023-07-24T14:10:08;24.00;99.90
37646;DHT22;23489;49.600;6.138;2023-07-24T14:12:34;23.80;99.90
37646;DHT22;23489;49.600;6.138;2023-07-24T14:15:00;23.30;99.90
37646;DHT22;23489;49.600;6.138;2023-07-24T14:17:25;22.90;99.90
37646;DHT22;23489;49.600;6.138;2023-07-24T14:19:51;23.00;99.90
37646;DHT22;23489;49.600;6.138;2023-07-24T14:22:16;23.00;99.90
37646;DHT22;23489;49.600;6.138;2023-07-24T14:24:42;23.30;99.90
37646;DHT22;23489;49.600;6.138;2023-07-24T14:27:07;23.10;99.90
37646;DHT22;23489;49.600;6.138;2023-07-24T14:29:33;22.80;99.90
37646;DHT22;23489;49.600;6.138;2023-07-24T14:31:58;22.80;99.90
37646;DHT22;23489;49.600;6.138;2023-07-24T14:34:24;22.80;99.90
37646;DHT22;23489;49.600;6.138;2023-07-24T14:36:49;22.80;99.90
37646;DHT22;23489;49.600;6.138;2023-07-24T14:39:15;22.90;99.90
37646;DHT22;23489;49.600;6.138;2023-07-24T14:41:40;22.90;99.90
37646;DHT22;23489;49.600;6.138;2023-07-24T14:44:06;22.80;99.90
37646;DHT22;23489;49.600;6.138;2023-07-24T14:46:31;22.90;99.90
37646;DHT22;23489;49.600;6.138;2023-07-24T14:48:57;22.50;99.90
37646;DHT22;23489;49.600;6.138;2023-07-24T14:51:23;22.30;99.90
37646;DHT22;23489;49.600;6.138;2023-07-24T14:53:49;22.30;99.90
37646;DHT22;23489;49.600;6.138;2023-07-24T14:56:14;22.20;99.90
37646;DHT22;23489;49.600;6.138;2023-07-24T14:58:40;22.30;99.90
37646;DHT22;23489;49.600;6.138;2023-07-24T15:01:07;22.40;99.90
37646;DHT22;23489;49.600;6.138;2023-07-24T15:03:33;22.10;99.90
37646;DHT22;23489;49.600;6.138;2023-07-24T15:05:58;21.70;99.90
37646;DHT22;23489;49.600;6.138;2023-07-24T15:08:29;21.80;99.90
37646;DHT22;23489;49.600;6.138;2023-07-24T15:10:54;21.60;99.90
37646;DHT22;23489;49.600;6.138;2023-07-24T15:13:20;21.60;99.90
37646;DHT22;23489;49.600;6.138;2023-07-24T15:15:45;21.60;99.90
37646;DHT22;23489;49.600;6.138;2023-07-24T15:18:11;21.80;99.90
37646;DHT22;23489;49.600;6.138;2023-07-24T15:20:36;21.80;99.90
37646;DHT22;23489;49.600;6.138;2023-07-24T15:23:02;21.70;99.90
37646;DHT22;23489;49.600;6.138;2023-07-24T15:25:28;21.70;99.90
37646;DHT22;23489;49.600;6.138;2023-07-24T15:27:53;21.90;99.90
37646;DHT22;23489;49.600;6.138;2023-07-24T15:30:19;22.00;99.50
37646;DHT22;23489;49.600;6.138;2023-07-24T15:32:44;22.00;99.50